sensor_id;sensor_type;location;lat;lon;timestamp;pressure;altitude;pressure_sealevel;temperature;humidity
47763;BME280;33526;42.690;23.322;2023-04-20T00:02:14;94708.59;;;10.14;71.36
47763;BME280;33526;42.690;23.322;2023-04-20T00:04:40;94702.53;;;10.16;71.57
47763;BME280;33526;42.690;23.322;2023-04-20T00:07:06;94688.34;;;10.05;70.78
47763;BME280;33526;42.690;23.322;2023-04-20T00:09:32;94705.81;;;10.14;71.28
47763;BME280;33526;42.690;23.322;2023-04-20T00:11:57;94701.59;;;10.19;69.96
47763;BME280;33526;42.690;23.322;2023-04-20T00:14:22;94692.00;;;10.11;70.00
47763;BME280;33526;42.690;23.322;2023-04-20T00:16:48;94706.44;;;10.09;69.71
47763;BME280;33526;42.690;23.322;2023-04-20T00:19:13;94707.88;;;10.05;69.84
47763;BME280;33526;42.690;23.322;2023-04-20T00:21:39;94696.38;;;10.03;70.98
47763;BME280;33526;42.690;23.322;2023-04-20T00:24:05;94699.25;;;9.93;70.94
47763;BME280;33526;42.690;23.322;2023-04-20T00:26:31;94687.81;;;9.82;70.33
47763;BME280;33526;42.690;23.322;2023-04-20T00:28:56;94693.41;;;9.82;70.67
47763;BME280;33526;42.690;23.322;2023-04-20T00:31:22;94690.31;;;9.80;70.67
47763;BME280;33526;42.690;23.322;2023-04-20T00:33:47;94699.94;;;9.79;70.93
47763;BME280;33526;42.690;23.322;2023-04-20T00:36:13;94696.25;;;9.73;70.99
47763;BME280;33526;42.690;23.322;2023-04-20T00:38:38;94694.53;;;9.75;71.28
47763;BME280;33526;42.690;23.322;2023-04-20T00:41:04;94697.00;;;9.73;71.33
47763;BME280;33526;42.690;23.322;2023-04-20T00:43:29;94660.34;;;9.56;70.89
47763;BME280;33526;42.690;23.322;2023-04-20T00:45:55;94689.72;;;9.76;70.84
47763;BME280;33526;42.690;23.322;2023-04-20T00:48:21;94684.75;;;9.80;70.75
47763;BME280;33526;42.690;23.322;2023-04-20T00:50:47;94689.09;;;9.72;71.03
47763;BME280;33526;42.690;23.322;2023-04-20T00:53:13;94702.44;;;9.77;71.30
47763;BME280;33526;42.690;23.322;2023-04-20T00:55:42;94690.41;;;9.62;71.55
47763;BME280;33526;42.690;23.322;2023-04-20T00:58:07;94694.09;;;9.68;71.79
47763;BME280;33526;42.690;23.322;2023-04-20T01:00:33;94696.34;;;9.54;71.83
47763;BME280;33526;42.690;23.322;2023-04-20T01:02:59;94685.84;;;9.40;72.81
47763;BME280;33526;42.690;23.322;2023-04-20T01:05:24;94687.63;;;9.52;72.38
47763;BME280;33526;42.690;23.322;2023-04-20T01:07:51;94684.88;;;9.43;73.08
47763;BME280;33526;42.690;23.322;2023-04-20T01:10:16;94692.34;;;9.37;73.82
47763;BME280;33526;42.690;23.322;2023-04-20T01:12:43;94698.88;;;9.34;74.17
47763;BME280;33526;42.690;23.322;2023-04-20T01:15:09;94686.47;;;9.35;74.24
47763;BME280;33526;42.690;23.322;2023-04-20T01:17:35;94694.50;;;9.42;74.21
47763;BME280;33526;42.690;23.322;2023-04-20T01:20:08;94686.19;;;9.33;74.72
47763;BME280;33526;42.690;23.322;2023-04-20T01:22:51;94684.03;;;9.28;74.46
47763;BME280;33526;42.690;23.322;2023-04-20T01:25:19;94694.69;;;9.38;74.80
47763;BME280;33526;42.690;23.322;2023-04-20T01:27:45;94691.72;;;9.42;74.78
47763;BME280;33526;42.690;23.322;2023-04-20T01:30:11;94648.06;;;9.30;74.39
47763;BME280;33526;42.690;23.322;2023-04-20T01:32:38;94683.94;;;9.46;73.86
47763;BME280;33526;42.690;23.322;2023-04-20T01:35:04;94660.66;;;9.16;74.08
47763;BME280;33526;42.690;23.322;2023-04-20T01:37:30;94680.25;;;9.40;74.46
47763;BME280;33526;42.690;23.322;2023-04-20T01:39:56;94678.38;;;9.46;74.84
47763;BME280;33526;42.690;23.322;2023-04-20T01:42:21;94676.47;;;9.52;74.04
47763;BME280;33526;42.690;23.322;2023-04-20T01:44:47;94673.84;;;9.58;73.62
47763;BME280;33526;42.690;23.322;2023-04-20T01:47:13;94675.06;;;9.57;73.56
47763;BME280;33526;42.690;23.322;2023-04-20T01:49:38;94672.44;;;9.53;72.63
47763;BME280;33526;42.690;23.322;2023-04-20T01:52:05;94664.53;;;9.52;73.24
47763;BME280;33526;42.690;23.322;2023-04-20T01:54:30;94650.69;;;9.33;72.98
47763;BME280;33526;42.690;23.322;2023-04-20T01:56:56;94661.50;;;9.41;73.59
47763;BME280;33526;42.690;23.322;2023-04-20T01:59:22;94655.78;;;9.35;73.75
47763;BME280;33526;42.690;23.322;2023-04-20T02:01:47;94664.28;;;9.41;73.96
47763;BME280;33526;42.690;23.322;2023-04-20T02:04:13;94666.63;;;9.42;73.55
47763;BME280;33526;42.690;23.322;2023-04-20T02:06:38;94658.25;;;9.42;73.72
47763;BME280;33526;42.690;23.322;2023-04-20T02:09:03;94656.50;;;9.45;74.24
47763;BME280;33526;42.690;23.322;2023-04-20T02:11:29;94666.63;;;9.42;74.22
47763;BME280;33526;42.690;23.322;2023-04-20T02:13:54;94645.25;;;9.30;74.01
47763;BME280;33526;42.690;23.322;2023-04-20T02:16:22;94650.22;;;9.35;73.49
47763;BME280;33526;42.690;23.322;2023-04-20T02:18:48;94660.41;;;9.38;73.92
47763;BME280;33526;42.690;23.322;2023-04-20T02:21:13;94652.25;;;9.25;74.55
47763;BME280;33526;42.690;23.322;2023-04-20T02:23:39;94660.56;;;9.34;74.37
47763;BME280;33526;42.690;23.322;2023-04-20T02:26:05;94663.56;;;9.22;74.36
47763;BME280;33526;42.690;23.322;2023-04-20T02:28:30;94670.97;;;9.34;75.00
47763;BME280;33526;42.690;23.322;2023-04-20T02:30:56;94661.84;;;9.33;74.32
47763;BME280;33526;42.690;23.322;2023-04-20T02:33:21;94669.44;;;9.24;74.23
47763;BME280;33526;42.690;23.322;2023-04-20T02:35:47;94655.72;;;9.02;74.57
47763;BME280;33526;42.690;23.322;2023-04-20T02:38:12;94654.47;;;9.12;74.34
47763;BME280;33526;42.690;23.322;2023-04-20T02:40:38;94667.34;;;9.09;74.21
47763;BME280;33526;42.690;23.322;2023-04-20T02:43:04;94643.97;;;8.97;74.51
47763;BME280;33526;42.690;23.322;2023-04-20T02:45:31;94679.09;;;9.13;74.68
47763;BME280;33526;42.690;23.322;2023-04-20T02:47:57;94679.53;;;9.21;74.69
47763;BME280;33526;42.690;23.322;2023-04-20T02:50:23;94674.41;;;9.29;74.86
47763;BME280;33526;42.690;23.322;2023-04-20T02:52:48;94659.97;;;9.30;74.69
47763;BME280;33526;42.690;23.322;2023-04-20T02:55:14;94655.50;;;9.33;73.78
47763;BME280;33526;42.690;23.322;2023-04-20T02:57:39;94667.53;;;9.39;74.00
47763;BME280;33526;42.690;23.322;2023-04-20T03:00:05;94654.56;;;9.27;74.09
47763;BME280;33526;42.690;23.322;2023-04-20T03:02:33;94673.13;;;9.39;73.83
47763;BME280;33526;42.690;23.322;2023-04-20T03:05:01;94661.69;;;9.28;73.88
47763;BME280;33526;42.690;23.322;2023-04-20T03:07:27;94669.09;;;9.40;74.36
47763;BME280;33526;42.690;23.322;2023-04-20T03:09:53;94672.19;;;9.42;73.91
47763;BME280;33526;42.690;23.322;2023-04-20T03:12:18;94659.34;;;9.35;73.14
47763;BME280;33526;42.690;23.322;2023-04-20T03:14:44;94666.91;;;9.44;73.40
47763;BME280;33526;42.690;23.322;2023-04-20T03:17:09;94649.25;;;9.38;73.68
47763;BME280;33526;42.690;23.322;2023-04-20T03:19:35;94660.06;;;9.45;73.64
47763;BME280;33526;42.690;23.322;2023-04-20T03:22:01;94651.44;;;9.34;73.87
47763;BME280;33526;42.690;23.322;2023-04-20T03:24:26;94670.63;;;9.41;72.69
47763;BME280;33526;42.690;23.322;2023-04-20T03:26:51;94670.47;;;9.45;73.05
47763;BME280;33526;42.690;23.322;2023-04-20T03:29:17;94672.50;;;9.44;73.29
47763;BME280;33526;42.690;23.322;2023-04-20T03:31:42;94668.13;;;9.43;73.29
47763;BME280;33526;42.690;23.322;2023-04-20T03:34:08;94675.88;;;9.48;73.41
47763;BME280;33526;42.690;23.322;2023-04-20T03:36:33;94649.88;;;9.42;73.23
47763;BME280;33526;42.690;23.322;2023-04-20T03:38:59;94669.09;;;9.40;72.41
47763;BME280;33526;42.690;23.322;2023-04-20T03:41:24;94662.41;;;9.47;72.51
47763;BME280;33526;42.690;23.322;2023-04-20T03:43:50;94662.69;;;9.49;72.01
47763;BME280;33526;42.690;23.322;2023-04-20T03:46:15;94667.28;;;9.61;72.52
47763;BME280;33526;42.690;23.322;2023-04-20T03:48:41;94658.44;;;9.63;71.46
47763;BME280;33526;42.690;23.322;2023-04-20T03:51:06;94653.50;;;9.57;70.77
47763;BME280;33526;42.690;23.322;2023-04-20T03:53:33;94664.63;;;9.67;71.49
47763;BME280;33526;42.690;23.322;2023-04-20T03:56:02;94653.69;;;9.54;71.70
47763;BME280;33526;42.690;23.322;2023-04-20T03:58:30;94669.28;;;9.70;70.71
47763;BME280;33526;42.690;23.322;2023-04-20T04:01:06;94605.91;;;9.28;71.00
47763;BME280;33526;42.690;23.322;2023-04-20T04:03:33;94672.34;;;9.72;70.82
47763;BME280;33526;42.690;23.322;2023-04-20T04:05:58;94680.25;;;9.73;71.58
47763;BME280;33526;42.690;23.322;2023-04-20T04:08:24;94672.97;;;9.76;70.94
47763;BME280;33526;42.690;23.322;2023-04-20T04:10:50;94655.38;;;9.61;70.72
47763;BME280;33526;42.690;23.322;2023-04-20T04:13:15;94665.59;;;9.64;71.70
47763;BME280;33526;42.690;23.322;2023-04-20T04:15:41;94684.78;;;9.71;71.71
47763;BME280;33526;42.690;23.322;2023-04-20T04:18:06;94680.78;;;9.63;71.36
47763;BME280;33526;42.690;23.322;2023-04-20T04:20:32;94686.53;;;9.59;71.69
47763;BME280;33526;42.690;23.322;2023-04-20T04:22:57;94686.31;;;9.72;72.03
47763;BME280;33526;42.690;23.322;2023-04-20T04:25:22;94679.31;;;9.76;71.17
47763;BME280;33526;42.690;23.322;2023-04-20T04:27:48;94681.03;;;9.74;71.82
47763;BME280;33526;42.690;23.322;2023-04-20T04:30:15;94685.78;;;9.59;71.83
47763;BME280;33526;42.690;23.322;2023-04-20T04:32:40;94665.06;;;9.41;72.19
47763;BME280;33526;42.690;23.322;2023-04-20T04:35:06;94685.94;;;9.55;71.72
47763;BME280;33526;42.690;23.322;2023-04-20T04:37:32;94674.94;;;9.51;72.46
47763;BME280;33526;42.690;23.322;2023-04-20T04:39:57;94685.47;;;9.56;71.37
47763;BME280;33526;42.690;23.322;2023-04-20T04:42:23;94687.13;;;9.63;71.27
47763;BME280;33526;42.690;23.322;2023-04-20T04:44:48;94676.63;;;9.58;71.50
47763;BME280;33526;42.690;23.322;2023-04-20T04:47:16;94686.31;;;9.72;71.63
47763;BME280;33526;42.690;23.322;2023-04-20T04:49:44;94687.88;;;9.73;70.85
47763;BME280;33526;42.690;23.322;2023-04-20T04:52:09;94698.41;;;9.78;70.92
47763;BME280;33526;42.690;23.322;2023-04-20T04:54:35;94698.22;;;9.82;70.98
47763;BME280;33526;42.690;23.322;2023-04-20T04:57:01;94690.38;;;9.71;70.50
47763;BME280;33526;42.690;23.322;2023-04-20T04:59:26;94696.03;;;9.86;71.16
47763;BME280;33526;42.690;23.322;2023-04-20T05:01:52;94709.41;;;9.82;71.34
47763;BME280;33526;42.690;23.322;2023-04-20T05:04:17;94704.41;;;9.86;71.51
47763;BME280;33526;42.690;23.322;2023-04-20T05:06:42;94712.69;;;10.04;70.27
47763;BME280;33526;42.690;23.322;2023-04-20T05:09:08;94716.56;;;10.07;70.88
47763;BME280;33526;42.690;23.322;2023-04-20T05:11:33;94702.69;;;9.88;70.40
47763;BME280;33526;42.690;23.322;2023-04-20T05:13:59;94717.16;;;10.11;70.50
47763;BME280;33526;42.690;23.322;2023-04-20T05:16:26;94709.38;;;10.15;70.41
47763;BME280;33526;42.690;23.322;2023-04-20T05:18:52;94702.41;;;10.10;70.05
47763;BME280;33526;42.690;23.322;2023-04-20T05:21:17;94714.19;;;10.14;69.44
47763;BME280;33526;42.690;23.322;2023-04-20T05:23:43;94690.22;;;9.99;69.48
47763;BME280;33526;42.690;23.322;2023-04-20T05:26:08;94721.19;;;10.10;69.94
47763;BME280;33526;42.690;23.322;2023-04-20T05:28:34;94715.31;;;10.08;69.35
47763;BME280;33526;42.690;23.322;2023-04-20T05:30:59;94699.50;;;10.05;69.53
47763;BME280;33526;42.690;23.322;2023-04-20T05:33:25;94718.56;;;10.06;70.18
47763;BME280;33526;42.690;23.322;2023-04-20T05:35:55;94705.44;;;9.98;69.82
47763;BME280;33526;42.690;23.322;2023-04-20T05:38:20;94722.09;;;10.16;69.21
47763;BME280;33526;42.690;23.322;2023-04-20T05:40:46;94719.59;;;10.18;69.55
47763;BME280;33526;42.690;23.322;2023-04-20T05:43:11;94725.00;;;10.22;70.11
47763;BME280;33526;42.690;23.322;2023-04-20T05:45:37;94694.34;;;10.12;70.24
47763;BME280;33526;42.690;23.322;2023-04-20T05:48:02;94720.81;;;10.26;70.10
47763;BME280;33526;42.690;23.322;2023-04-20T05:50:28;94717.19;;;10.35;70.34
47763;BME280;33526;42.690;23.322;2023-04-20T05:52:53;94721.72;;;10.32;69.88
47763;BME280;33526;42.690;23.322;2023-04-20T05:55:19;94717.00;;;10.39;70.27
47763;BME280;33526;42.690;23.322;2023-04-20T05:57:44;94721.28;;;10.49;68.88
47763;BME280;33526;42.690;23.322;2023-04-20T06:00:11;94703.34;;;10.41;69.52
47763;BME280;33526;42.690;23.322;2023-04-20T06:02:37;94725.16;;;10.51;69.87
47763;BME280;33526;42.690;23.322;2023-04-20T06:05:02;94705.22;;;10.35;70.29
47763;BME280;33526;42.690;23.322;2023-04-20T06:07:28;94725.69;;;10.41;71.14
47763;BME280;33526;42.690;23.322;2023-04-20T06:09:53;94701.38;;;10.32;71.33
47763;BME280;33526;42.690;23.322;2023-04-20T06:12:19;94710.06;;;10.34;70.67
47763;BME280;33526;42.690;23.322;2023-04-20T06:14:45;94709.53;;;10.45;70.67
47763;BME280;33526;42.690;23.322;2023-04-20T06:17:11;94719.06;;;10.53;71.07
47763;BME280;33526;42.690;23.322;2023-04-20T06:19:36;94712.81;;;10.58;70.74
47763;BME280;33526;42.690;23.322;2023-04-20T06:22:08;94714.69;;;10.61;70.76
47763;BME280;33526;42.690;23.322;2023-04-20T06:24:34;94732.09;;;10.56;70.17
47763;BME280;33526;42.690;23.322;2023-04-20T06:27:01;94729.00;;;10.54;70.16
47763;BME280;33526;42.690;23.322;2023-04-20T06:29:27;94721.56;;;10.51;70.99
47763;BME280;33526;42.690;23.322;2023-04-20T06:31:53;94730.19;;;10.62;70.45
47763;BME280;33526;42.690;23.322;2023-04-20T06:34:19;94721.69;;;10.57;70.59
47763;BME280;33526;42.690;23.322;2023-04-20T06:36:44;94744.16;;;10.62;70.62
47763;BME280;33526;42.690;23.322;2023-04-20T06:39:10;94727.22;;;10.42;70.80
47763;BME280;33526;42.690;23.322;2023-04-20T06:41:36;94739.25;;;10.57;70.75
47763;BME280;33526;42.690;23.322;2023-04-20T06:44:03;94727.88;;;10.61;71.08
47763;BME280;33526;42.690;23.322;2023-04-20T06:46:28;94741.69;;;10.64;70.41
47763;BME280;33526;42.690;23.322;2023-04-20T06:48:53;94742.69;;;10.52;70.90
47763;BME280;33526;42.690;23.322;2023-04-20T06:51:19;94745.59;;;10.58;70.85
47763;BME280;33526;42.690;23.322;2023-04-20T06:53:44;94749.88;;;10.44;71.85
47763;BME280;33526;42.690;23.322;2023-04-20T06:56:10;94756.16;;;10.29;73.19
47763;BME280;33526;42.690;23.322;2023-04-20T06:58:36;94755.84;;;10.27;74.52
47763;BME280;33526;42.690;23.322;2023-04-20T07:01:01;94734.78;;;10.17;74.68
47763;BME280;33526;42.690;23.322;2023-04-20T07:03:27;94741.19;;;10.18;74.62
47763;BME280;33526;42.690;23.322;2023-04-20T07:05:52;94750.88;;;10.31;75.10
47763;BME280;33526;42.690;23.322;2023-04-20T07:08:18;94751.72;;;10.47;74.93
47763;BME280;33526;42.690;23.322;2023-04-20T07:10:44;94764.69;;;10.59;75.10
47763;BME280;33526;42.690;23.322;2023-04-20T07:13:09;94754.25;;;10.84;74.32
47763;BME280;33526;42.690;23.322;2023-04-20T07:15:35;94765.38;;;10.93;73.53
47763;BME280;33526;42.690;23.322;2023-04-20T07:18:00;94741.28;;;10.96;71.24
47763;BME280;33526;42.690;23.322;2023-04-20T07:20:26;94760.09;;;11.10;72.25
47763;BME280;33526;42.690;23.322;2023-04-20T07:22:51;94752.75;;;11.13;71.58
47763;BME280;33526;42.690;23.322;2023-04-20T07:25:16;94744.03;;;11.35;70.80
47763;BME280;33526;42.690;23.322;2023-04-20T07:27:42;94754.81;;;11.27;70.32
47763;BME280;33526;42.690;23.322;2023-04-20T07:30:09;94739.75;;;11.24;70.55
47763;BME280;33526;42.690;23.322;2023-04-20T07:32:35;94769.31;;;11.70;69.79
47763;BME280;33526;42.690;23.322;2023-04-20T07:35:01;94758.41;;;11.72;68.67
47763;BME280;33526;42.690;23.322;2023-04-20T07:37:28;94760.13;;;11.84;68.65
47763;BME280;33526;42.690;23.322;2023-04-20T07:39:53;94765.44;;;12.12;68.20
47763;BME280;33526;42.690;23.322;2023-04-20T07:42:19;94747.00;;;12.26;66.78
47763;BME280;33526;42.690;23.322;2023-04-20T07:44:46;94746.16;;;12.55;65.68
47763;BME280;33526;42.690;23.322;2023-04-20T07:47:11;94758.91;;;12.56;65.21
47763;BME280;33526;42.690;23.322;2023-04-20T07:49:36;94741.94;;;12.45;64.47
47763;BME280;33526;42.690;23.322;2023-04-20T07:52:04;94763.00;;;12.40;64.62
47763;BME280;33526;42.690;23.322;2023-04-20T07:54:30;94760.53;;;12.28;64.35
47763;BME280;33526;42.690;23.322;2023-04-20T07:56:56;94741.88;;;11.89;65.90
47763;BME280;33526;42.690;23.322;2023-04-20T07:59:22;94751.53;;;12.38;64.29
47763;BME280;33526;42.690;23.322;2023-04-20T08:01:47;94748.63;;;12.68;63.78
47763;BME280;33526;42.690;23.322;2023-04-20T08:04:12;94746.84;;;12.91;62.45
47763;BME280;33526;42.690;23.322;2023-04-20T08:06:38;94731.81;;;12.94;61.50
47763;BME280;33526;42.690;23.322;2023-04-20T08:09:03;94762.19;;;13.37;61.76
47763;BME280;33526;42.690;23.322;2023-04-20T08:11:29;94758.03;;;13.12;60.82
47763;BME280;33526;42.690;23.322;2023-04-20T08:13:54;94758.81;;;13.12;61.61
47763;BME280;33526;42.690;23.322;2023-04-20T08:16:19;94745.25;;;12.85;61.64
47763;BME280;33526;42.690;23.322;2023-04-20T08:18:45;94759.19;;;12.99;62.09
47763;BME280;33526;42.690;23.322;2023-04-20T08:21:10;94756.09;;;12.97;61.87
47763;BME280;33526;42.690;23.322;2023-04-20T08:23:36;94760.88;;;12.71;62.91
47763;BME280;33526;42.690;23.322;2023-04-20T08:26:02;94761.06;;;12.47;63.83
47763;BME280;33526;42.690;23.322;2023-04-20T08:28:28;94748.00;;;12.23;64.37
47763;BME280;33526;42.690;23.322;2023-04-20T08:30:54;94754.81;;;12.37;63.72
47763;BME280;33526;42.690;23.322;2023-04-20T08:33:19;94739.25;;;12.36;64.08
47763;BME280;33526;42.690;23.322;2023-04-20T08:35:44;94750.97;;;12.55;63.35
47763;BME280;33526;42.690;23.322;2023-04-20T08:38:10;94758.06;;;12.71;62.95
47763;BME280;33526;42.690;23.322;2023-04-20T08:40:36;94763.53;;;12.80;61.91
47763;BME280;33526;42.690;23.322;2023-04-20T08:43:02;94748.25;;;12.60;62.52
47763;BME280;33526;42.690;23.322;2023-04-20T08:45:28;94753.88;;;12.60;62.26
47763;BME280;33526;42.690;23.322;2023-04-20T08:47:57;94761.63;;;12.51;62.90
47763;BME280;33526;42.690;23.322;2023-04-20T08:50:22;94756.53;;;12.70;62.04
47763;BME280;33526;42.690;23.322;2023-04-20T08:52:48;94756.41;;;12.23;63.51
47763;BME280;33526;42.690;23.322;2023-04-20T08:55:17;94759.56;;;12.31;63.15
47763;BME280;33526;42.690;23.322;2023-04-20T08:57:43;94763.56;;;12.24;63.64
47763;BME280;33526;42.690;23.322;2023-04-20T09:00:10;94752.59;;;12.41;62.67
47763;BME280;33526;42.690;23.322;2023-04-20T09:02:46;94754.25;;;12.33;62.79
47763;BME280;33526;42.690;23.322;2023-04-20T09:05:12;94758.13;;;12.56;62.38
47763;BME280;33526;42.690;23.322;2023-04-20T09:07:37;94736.81;;;12.43;61.94
47763;BME280;33526;42.690;23.322;2023-04-20T09:10:03;94769.50;;;12.47;62.45
47763;BME280;33526;42.690;23.322;2023-04-20T09:12:39;94750.72;;;12.73;61.75
47763;BME280;33526;42.690;23.322;2023-04-20T09:15:06;94747.53;;;12.66;61.49
47763;BME280;33526;42.690;23.322;2023-04-20T09:17:33;94745.75;;;12.62;61.61
47763;BME280;33526;42.690;23.322;2023-04-20T09:19:59;94763.56;;;13.27;60.47
47763;BME280;33526;42.690;23.322;2023-04-20T09:22:29;94758.03;;;13.32;60.34
47763;BME280;33526;42.690;23.322;2023-04-20T09:24:55;94758.00;;;13.53;59.05
47763;BME280;33526;42.690;23.322;2023-04-20T09:27:20;94751.94;;;13.34;59.49
47763;BME280;33526;42.690;23.322;2023-04-20T09:30:00;94752.94;;;13.89;59.23
47763;BME280;33526;42.690;23.322;2023-04-20T09:32:28;94749.81;;;14.13;57.99
47763;BME280;33526;42.690;23.322;2023-04-20T09:34:54;94748.38;;;14.66;56.72
47763;BME280;33526;42.690;23.322;2023-04-20T09:37:19;94745.00;;;15.17;54.72
47763;BME280;33526;42.690;23.322;2023-04-20T09:39:47;94742.16;;;15.11;55.03
47763;BME280;33526;42.690;23.322;2023-04-20T09:42:14;94729.88;;;15.14;54.44
47763;BME280;33526;42.690;23.322;2023-04-20T09:44:40;94740.13;;;15.17;53.91
47763;BME280;33526;42.690;23.322;2023-04-20T09:47:06;94745.28;;;15.36;53.10
47763;BME280;33526;42.690;23.322;2023-04-20T09:49:33;94744.28;;;15.39;53.23
47763;BME280;33526;42.690;23.322;2023-04-20T09:52:02;94736.31;;;15.26;54.63
47763;BME280;33526;42.690;23.322;2023-04-20T09:54:29;94743.69;;;15.12;53.99
47763;BME280;33526;42.690;23.322;2023-04-20T09:56:58;94724.78;;;15.18;53.71
47763;BME280;33526;42.690;23.322;2023-04-20T09:59:23;94733.22;;;15.13;54.53
47763;BME280;33526;42.690;23.322;2023-04-20T10:01:50;94723.41;;;14.91;54.31
47763;BME280;33526;42.690;23.322;2023-04-20T10:04:16;94728.41;;;14.64;55.80
47763;BME280;33526;42.690;23.322;2023-04-20T10:06:51;94723.03;;;14.61;55.38
47763;BME280;33526;42.690;23.322;2023-04-20T10:09:23;94720.47;;;14.63;55.92
47763;BME280;33526;42.690;23.322;2023-04-20T10:11:50;94711.16;;;14.51;55.33
47763;BME280;33526;42.690;23.322;2023-04-20T10:14:23;94692.09;;;14.18;56.04
47763;BME280;33526;42.690;23.322;2023-04-20T10:17:06;94709.50;;;14.70;55.00
47763;BME280;33526;42.690;23.322;2023-04-20T10:19:39;94698.34;;;14.93;54.37
47763;BME280;33526;42.690;23.322;2023-04-20T10:22:05;94701.75;;;15.25;53.68
47763;BME280;33526;42.690;23.322;2023-04-20T10:24:31;94692.50;;;15.08;53.60
47763;BME280;33526;42.690;23.322;2023-04-20T10:26:57;94694.53;;;15.02;54.13
47763;BME280;33526;42.690;23.322;2023-04-20T10:29:23;94684.88;;;15.25;53.40
47763;BME280;33526;42.690;23.322;2023-04-20T10:31:49;94705.91;;;15.47;53.13
47763;BME280;33526;42.690;23.322;2023-04-20T10:34:16;94697.69;;;15.72;52.33
47763;BME280;33526;42.690;23.322;2023-04-20T10:36:42;94705.41;;;15.77;52.41
47763;BME280;33526;42.690;23.322;2023-04-20T10:39:21;94685.94;;;15.79;51.79
47763;BME280;33526;42.690;23.322;2023-04-20T10:41:54;94704.59;;;15.37;52.60
47763;BME280;33526;42.690;23.322;2023-04-20T10:44:23;94688.13;;;15.01;52.21
47763;BME280;33526;42.690;23.322;2023-04-20T10:46:49;94695.41;;;14.16;54.47
47763;BME280;33526;42.690;23.322;2023-04-20T10:49:14;94692.50;;;14.42;54.92
47763;BME280;33526;42.690;23.322;2023-04-20T10:51:48;94706.16;;;14.61;55.02
47763;BME280;33526;42.690;23.322;2023-04-20T10:54:14;94693.97;;;14.38;55.03
47763;BME280;33526;42.690;23.322;2023-04-20T10:56:41;94688.31;;;14.26;55.88
47763;BME280;33526;42.690;23.322;2023-04-20T10:59:08;94679.84;;;14.69;54.67
47763;BME280;33526;42.690;23.322;2023-04-20T11:01:33;94696.06;;;15.03;53.89
47763;BME280;33526;42.690;23.322;2023-04-20T11:03:59;94691.31;;;15.48;52.70
47763;BME280;33526;42.690;23.322;2023-04-20T11:06:24;94692.34;;;15.74;52.02
47763;BME280;33526;42.690;23.322;2023-04-20T11:08:50;94701.81;;;16.10;50.58
47763;BME280;33526;42.690;23.322;2023-04-20T11:11:22;94696.44;;;15.84;50.21
47763;BME280;33526;42.690;23.322;2023-04-20T11:14:08;94683.38;;;16.03;49.31
47763;BME280;33526;42.690;23.322;2023-04-20T11:16:34;94695.94;;;15.91;49.70
47763;BME280;33526;42.690;23.322;2023-04-20T11:19:01;94674.94;;;15.86;50.26
47763;BME280;33526;42.690;23.322;2023-04-20T11:21:41;94664.91;;;16.14;49.93
47763;BME280;33526;42.690;23.322;2023-04-20T11:24:36;94658.88;;;16.62;48.03
47763;BME280;33526;42.690;23.322;2023-04-20T11:27:02;94678.09;;;16.64;47.80
47763;BME280;33526;42.690;23.322;2023-04-20T11:29:37;94682.81;;;16.33;48.04
47763;BME280;33526;42.690;23.322;2023-04-20T11:32:07;94674.91;;;16.09;48.25
47763;BME280;33526;42.690;23.322;2023-04-20T11:34:34;94678.75;;;16.00;49.04
47763;BME280;33526;42.690;23.322;2023-04-20T11:37:06;94681.50;;;16.51;48.82
47763;BME280;33526;42.690;23.322;2023-04-20T11:39:32;94656.09;;;16.40;47.14
47763;BME280;33526;42.690;23.322;2023-04-20T11:41:58;94667.91;;;16.50;47.51
47763;BME280;33526;42.690;23.322;2023-04-20T11:44:25;94671.59;;;16.92;46.07
47763;BME280;33526;42.690;23.322;2023-04-20T11:46:53;94653.69;;;16.84;46.81
47763;BME280;33526;42.690;23.322;2023-04-20T11:49:25;94671.28;;;17.01;45.88
47763;BME280;33526;42.690;23.322;2023-04-20T11:51:51;94665.72;;;16.78;45.48
47763;BME280;33526;42.690;23.322;2023-04-20T11:54:17;94657.97;;;16.96;45.60
47763;BME280;33526;42.690;23.322;2023-04-20T11:56:46;94652.31;;;16.96;45.91
47763;BME280;33526;42.690;23.322;2023-04-20T11:59:11;94657.84;;;17.18;45.80
47763;BME280;33526;42.690;23.322;2023-04-20T12:01:39;94662.91;;;16.78;47.53
47763;BME280;33526;42.690;23.322;2023-04-20T12:04:05;94660.16;;;16.56;47.51
47763;BME280;33526;42.690;23.322;2023-04-20T12:06:30;94659.44;;;16.44;47.87
47763;BME280;33526;42.690;23.322;2023-04-20T12:08:56;94663.94;;;15.83;49.74
47763;BME280;33526;42.690;23.322;2023-04-20T12:11:22;94688.47;;;15.43;50.81
47763;BME280;33526;42.690;23.322;2023-04-20T12:13:48;94633.47;;;14.53;52.79
47763;BME280;33526;42.690;23.322;2023-04-20T12:16:14;94678.16;;;14.95;52.52
47763;BME280;33526;42.690;23.322;2023-04-20T12:18:40;94652.97;;;14.63;52.86
47763;BME280;33526;42.690;23.322;2023-04-20T12:21:06;94647.84;;;14.67;53.16
47763;BME280;33526;42.690;23.322;2023-04-20T12:23:32;94646.69;;;14.42;54.10
47763;BME280;33526;42.690;23.322;2023-04-20T12:25:58;94667.94;;;14.43;55.23
47763;BME280;33526;42.690;23.322;2023-04-20T12:28:24;94667.97;;;14.54;55.18
47763;BME280;33526;42.690;23.322;2023-04-20T12:30:49;94660.25;;;14.43;55.57
47763;BME280;33526;42.690;23.322;2023-04-20T12:33:15;94667.19;;;14.42;54.61
47763;BME280;33526;42.690;23.322;2023-04-20T12:35:41;94660.09;;;14.64;52.90
47763;BME280;33526;42.690;23.322;2023-04-20T12:38:07;94650.19;;;14.80;52.36
47763;BME280;33526;42.690;23.322;2023-04-20T12:40:33;94665.06;;;14.80;52.77
47763;BME280;33526;42.690;23.322;2023-04-20T12:42:59;94648.66;;;14.73;53.88
47763;BME280;33526;42.690;23.322;2023-04-20T12:52:45;94649.31;;;15.96;51.41
47763;BME280;33526;42.690;23.322;2023-04-20T13:05:34;94640.09;;;15.61;49.99
47763;BME280;33526;42.690;23.322;2023-04-20T13:08:00;94632.63;;;15.36;50.94